Time;durP1;ratioP1;P1;durP2;ratioP2;P2;SDS_P1;SDS_P2;PMS_P1;PMS_P2;Temp;Humidity;BMP_temperature;BMP_pressure;BME280_temperature;BME280_humidity;BME280_pressure;Samples;Min_cycle;Max_cycle;Signal;HPM_P1;HPM_P2
2023/05/08 00:00:31;;;;;;;46.85;39.95;;;13.20;99.90;;;;;;5010688;28;20218;-74
2023/05/08 00:02:58;;;;;;;43.77;37.80;;;13.20;99.90;;;;;;5010160;28;20203;-75
2023/05/08 00:05:25;;;;;;;40.00;35.10;;;13.20;99.90;;;;;;5010005;28;20215;-75
2023/05/08 00:07:52;;;;;;;39.42;35.08;;;13.10;99.90;;;;;;5013987;28;20306;-75
2023/05/08 00:10:19;;;;;;;39.43;34.53;;;13.10;99.90;;;;;;5014214;28;20199;-75
2023/05/08 00:12:47;;;;;;;42.23;35.93;;;13.10;99.90;;;;;;4998982;28;20286;-75
2023/05/08 00:15:14;;;;;;;51.73;43.13;;;13.10;99.90;;;;;;4995661;28;20200;-75
2023/05/08 00:17:41;;;;;;;52.45;43.55;;;13.00;99.90;;;;;;5000006;28;20606;-74
2023/05/08 00:20:09;;;;;;;46.17;39.33;;;13.00;99.90;;;;;;5014881;28;20210;-75
2023/05/08 00:22:35;;;;;;;46.23;39.00;;;13.00;99.90;;;;;;5015106;28;20206;-75
2023/05/08 00:25:04;;;;;;;43.27;37.20;;;12.90;99.90;;;;;;5013653;28;20210;-75
2023/05/08 00:27:31;;;;;;;44.47;37.50;;;12.90;99.90;;;;;;5015129;28;20227;-74
2023/05/08 00:29:59;;;;;;;39.63;34.95;;;12.90;99.90;;;;;;5014886;28;20199;-76
2023/05/08 00:32:26;;;;;;;54.80;44.20;;;12.90;99.90;;;;;;5013782;28;20517;-76
2023/05/08 00:34:53;;;;;;;52.63;43.50;;;12.90;99.90;;;;;;5010587;28;20206;-74
2023/05/08 00:37:20;;;;;;;69.77;53.23;;;12.80;99.90;;;;;;4995459;28;20200;-79
2023/05/08 00:39:46;;;;;;;59.57;47.30;;;12.80;99.90;;;;;;4994886;28;20223;-77
2023/05/08 00:42:13;;;;;;;67.27;50.33;;;12.70;99.90;;;;;;4999964;28;20221;-80
2023/05/08 00:44:40;;;;;;;59.30;44.53;;;12.60;99.90;;;;;;5015043;28;20195;-75
2023/05/08 00:47:08;;;;;;;62.90;47.53;;;12.60;99.90;;;;;;5014116;28;20204;-76
2023/05/08 00:49:36;;;;;;;70.60;52.72;;;12.60;99.90;;;;;;5013762;28;20234;-75
2023/05/08 00:52:07;;;;;;;80.70;57.97;;;12.60;99.90;;;;;;5013449;28;20208;-75
2023/05/08 00:54:35;;;;;;;76.80;56.53;;;12.60;99.90;;;;;;5014417;28;20195;-79
2023/05/08 00:57:03;;;;;;;73.93;54.40;;;12.50;99.90;;;;;;5014481;28;20540;-75
2023/05/08 00:59:31;;;;;;;74.90;53.67;;;12.50;99.90;;;;;;5014011;28;20619;-79
2023/05/08 01:01:58;;;;;;;78.87;55.33;;;12.40;99.90;;;;;;5014177;28;20207;-79
2023/05/08 01:04:27;;;;;;;77.93;56.03;;;12.50;99.90;;;;;;5013615;28;20203;-77
2023/05/08 01:06:54;;;;;;;70.20;51.97;;;12.50;99.90;;;;;;5013373;28;20196;-74
2023/05/08 01:09:21;;;;;;;67.63;51.37;;;12.50;99.90;;;;;;5002997;28;20231;-75
2023/05/08 01:11:52;;;;;;;70.63;50.57;;;12.50;99.90;;;;;;5010336;28;20239;-76
2023/05/08 01:14:23;;;;;;;73.53;52.63;;;12.50;99.90;;;;;;5012804;28;20192;-74
2023/05/08 01:17:10;;;;;;;82.70;56.87;;;12.50;99.90;;;;;;5013114;28;20288;-75
2023/05/08 01:19:58;;;;;;;79.60;56.50;;;12.50;99.90;;;;;;5013832;28;20195;-78
2023/05/08 01:22:50;;;;;;;82.70;58.60;;;12.50;99.90;;;;;;5013866;28;20202;-75
2023/05/08 01:25:37;;;;;;;78.13;53.20;;;12.50;99.90;;;;;;4994350;28;20692;-79
2023/05/08 01:28:21;;;;;;;71.03;51.83;;;12.40;99.90;;;;;;4993712;28;20251;-76
2023/05/08 01:31:05;;;;;;;64.80;48.03;;;12.40;99.90;;;;;;4994489;28;20199;-75
2023/05/08 01:33:41;;;;;;;71.53;50.73;;;12.40;99.90;;;;;;4993930;28;20597;-74
2023/05/08 01:36:20;;;;;;;78.43;55.55;;;12.40;99.90;;;;;;4993613;28;20231;-77
2023/05/08 01:38:56;;;;;;;73.67;52.73;;;12.40;99.90;;;;;;4994010;28;20247;-74
2023/05/08 01:41:27;;;;;;;77.87;54.77;;;12.40;99.90;;;;;;4993802;28;20282;-75
2023/05/08 01:44:06;;;;;;;79.30;55.00;;;12.40;99.90;;;;;;4993519;28;20207;-74
2023/05/08 01:46:33;;;;;;;79.03;56.47;;;12.40;99.90;;;;;;4994137;28;20307;-74
2023/05/08 01:49:08;;;;;;;74.23;54.40;;;12.40;99.90;;;;;;5001517;28;20321;-75
2023/05/08 01:51:40;;;;;;;65.57;50.67;;;12.30;99.90;;;;;;5013632;28;20210;-76
2023/05/08 01:54:11;;;;;;;67.73;49.53;;;12.40;99.90;;;;;;5012670;28;20195;-74
2023/05/08 01:56:40;;;;;;;64.57;48.23;;;12.40;99.90;;;;;;5012673;28;20183;-81
2023/05/08 01:59:08;;;;;;;71.40;52.93;;;12.40;99.90;;;;;;5013336;28;20678;-75
2023/05/08 02:01:35;;;;;;;63.43;46.80;;;12.40;99.90;;;;;;5010823;28;20205;-76
2023/05/08 02:04:06;;;;;;;77.63;55.27;;;12.40;99.90;;;;;;5012682;28;20498;-77
2023/05/08 02:06:34;;;;;;;80.17;57.60;;;12.50;99.90;;;;;;5013133;28;20203;-76
2023/05/08 02:09:02;;;;;;;81.63;60.55;;;12.50;99.90;;;;;;5012854;28;20230;-75
2023/05/08 02:11:32;;;;;;;87.03;62.73;;;12.60;99.90;;;;;;5011166;28;20235;-75
2023/05/08 02:14:01;;;;;;;91.63;64.87;;;12.60;99.90;;;;;;5013340;28;20193;-74
2023/05/08 02:16:30;;;;;;;97.87;67.40;;;12.60;99.90;;;;;;5012788;28;20199;-76
2023/05/08 02:18:58;;;;;;;92.07;65.53;;;12.70;99.90;;;;;;5011572;28;20199;-77
2023/05/08 02:21:27;;;;;;;90.30;65.07;;;12.60;99.90;;;;;;5013080;28;20196;-76
2023/05/08 02:23:56;;;;;;;79.63;58.27;;;12.60;99.90;;;;;;5011255;28;20538;-75
2023/05/08 02:26:24;;;;;;;76.53;54.30;;;12.60;99.90;;;;;;5012850;28;20192;-75
2023/05/08 02:28:52;;;;;;;85.03;62.13;;;12.60;99.90;;;;;;5012482;28;20246;-75
2023/05/08 02:31:20;;;;;;;82.33;57.43;;;12.60;99.90;;;;;;5012094;28;20191;-74
2023/05/08 02:33:49;;;;;;;73.90;54.63;;;12.60;99.90;;;;;;4997386;28;20302;-75
2023/05/08 02:36:18;;;;;;;82.43;57.03;;;12.60;99.90;;;;;;4993090;28;20188;-77
2023/05/08 02:38:50;;;;;;;85.23;59.17;;;12.60;99.90;;;;;;5006973;28;20205;-74
2023/05/08 02:41:20;;;;;;;75.00;54.83;;;12.60;99.90;;;;;;5012644;28;20258;-74
2023/05/08 02:43:47;;;;;;;82.77;58.43;;;12.50;99.90;;;;;;5012838;28;20205;-75
2023/05/08 02:46:18;;;;;;;78.90;56.87;;;12.50;99.90;;;;;;4998466;28;20208;-74
2023/05/08 02:48:55;;;;;;;78.40;56.20;;;12.50;99.90;;;;;;4992472;28;20212;-76
2023/05/08 02:51:26;;;;;;;76.83;52.10;;;12.40;99.90;;;;;;5006740;28;20214;-75
2023/05/08 02:53:58;;;;;;;78.80;57.50;;;12.40;99.90;;;;;;5010369;28;20195;-75
2023/05/08 02:56:37;;;;;;;81.30;55.03;;;12.40;99.90;;;;;;5012568;28;20195;-75
2023/05/08 02:59:14;;;;;;;69.00;50.53;;;12.30;99.90;;;;;;5010793;28;20223;-76
2023/05/08 03:01:48;;;;;;;75.50;54.27;;;12.30;99.90;;;;;;5006923;28;20196;-76
2023/05/08 03:04:25;;;;;;;72.70;52.63;;;12.30;99.90;;;;;;4992584;28;20231;-76
2023/05/08 03:06:54;;;;;;;69.67;50.10;;;12.30;99.90;;;;;;4991782;28;20236;-75
2023/05/08 03:09:25;;;;;;;78.00;55.03;;;12.20;99.90;;;;;;5012099;28;20233;-76
2023/05/08 03:11:59;;;;;;;65.83;47.97;;;12.20;99.90;;;;;;4998252;28;20274;-74
2023/05/08 03:14:30;;;;;;;61.77;45.73;;;12.20;99.90;;;;;;4990900;28;20191;-76
2023/05/08 03:17:00;;;;;;;58.63;43.20;;;12.20;99.90;;;;;;4991847;28;20192;-75
2023/05/08 03:19:30;;;;;;;61.33;44.20;;;12.20;99.90;;;;;;5000170;28;20232;-76
2023/05/08 03:22:00;;;;;;;62.07;44.83;;;12.20;99.90;;;;;;5010349;28;20238;-76
2023/05/08 03:24:31;;;;;;;59.50;44.20;;;12.10;99.90;;;;;;5011158;28;20562;-76
2023/05/08 03:27:00;;;;;;;57.03;42.80;;;12.20;99.90;;;;;;5010011;28;20199;-76
2023/05/08 03:29:28;;;;;;;54.43;41.10;;;12.10;99.90;;;;;;5010490;28;20231;-76
2023/05/08 03:31:58;;;;;;;49.23;38.77;;;12.10;99.90;;;;;;5010953;28;20209;-76
2023/05/08 03:34:26;;;;;;;51.93;39.23;;;12.10;99.90;;;;;;5009705;28;20205;-76
2023/05/08 03:36:53;;;;;;;48.80;38.00;;;12.10;99.90;;;;;;5011230;28;20289;-75
2023/05/08 03:39:19;;;;;;;50.47;38.37;;;12.10;99.90;;;;;;5011374;28;20199;-77
2023/05/08 03:41:48;;;;;;;68.17;48.70;;;12.20;99.90;;;;;;4993723;28;20208;-76
2023/05/08 03:44:17;;;;;;;69.07;51.23;;;12.20;99.90;;;;;;4994983;28;20211;-76
2023/05/08 03:46:46;;;;;;;74.33;52.03;;;12.20;99.90;;;;;;5009613;28;20294;-75
2023/05/08 03:49:15;;;;;;;70.07;49.33;;;12.30;99.90;;;;;;5014006;28;20215;-76
2023/05/08 03:51:43;;;;;;;74.73;52.50;;;12.30;99.90;;;;;;5014244;28;20207;-77
2023/05/08 03:54:10;;;;;;;101.57;65.87;;;12.30;99.90;;;;;;5012895;28;20210;-75
2023/05/08 03:56:37;;;;;;;105.37;70.97;;;12.30;99.90;;;;;;5013866;28;20214;-75
2023/05/08 03:59:12;;;;;;;91.27;61.10;;;12.30;99.90;;;;;;5013966;28;20219;-76
2023/05/08 04:01:44;;;;;;;75.00;52.73;;;12.30;99.90;;;;;;5013358;28;20210;-76
2023/05/08 04:04:16;;;;;;;69.07;49.37;;;12.30;99.90;;;;;;5013251;28;20663;-76
2023/05/08 04:06:47;;;;;;;68.20;48.37;;;12.30;99.90;;;;;;4995410;28;20196;-76
2023/05/08 04:09:19;;;;;;;77.90;51.53;;;12.30;99.90;;;;;;4994466;28;20581;-75
2023/05/08 04:11:56;;;;;;;66.90;45.77;;;12.40;99.90;;;;;;4956223;28;1106871;-77
2023/05/08 04:14:27;;;;;;;63.43;47.00;;;12.40;99.90;;;;;;4995812;28;20199;-76
2023/05/08 04:17:07;;;;;;;64.57;45.47;;;12.40;99.90;;;;;;4995331;28;20299;-76
2023/05/08 04:19:38;;;;;;;62.53;46.07;;;12.40;99.90;;;;;;5003205;28;20246;-76
2023/05/08 04:22:07;;;;;;;67.43;48.17;;;12.40;99.90;;;;;;5015161;28;20595;-75
2023/05/08 04:24:39;;;;;;;74.27;50.10;;;12.40;99.90;;;;;;5014415;28;20203;-76
2023/05/08 04:27:07;;;;;;;68.60;48.63;;;12.50;99.90;;;;;;5014174;28;20209;-76
2023/05/08 04:29:35;;;;;;;72.60;49.63;;;12.50;99.90;;;;;;5014597;28;20309;-77
2023/05/08 04:32:04;;;;;;;63.10;44.77;;;12.50;99.90;;;;;;5005783;28;20243;-76
2023/05/08 04:34:32;;;;;;;71.43;48.33;;;12.50;99.90;;;;;;4995291;28;20604;-76
2023/05/08 04:36:59;;;;;;;65.37;46.50;;;12.60;99.90;;;;;;4995315;28;20202;-76
2023/05/08 04:39:26;;;;;;;72.27;49.07;;;12.60;99.90;;;;;;4995629;28;20274;-76
2023/05/08 04:41:54;;;;;;;67.37;47.40;;;12.70;99.90;;;;;;5014591;28;20500;-77
2023/05/08 04:44:21;;;;;;;64.47;45.78;;;12.70;99.90;;;;;;5014280;28;20604;-75
2023/05/08 04:46:50;;;;;;;66.22;45.35;;;12.70;99.90;;;;;;5013237;28;20218;-77
2023/05/08 04:49:16;;;;;;;70.38;48.47;;;12.70;99.90;;;;;;5014398;28;20523;-76
2023/05/08 04:51:44;;;;;;;71.80;49.57;;;12.80;99.90;;;;;;5011438;28;20226;-75
2023/05/08 04:54:10;;;;;;;79.70;53.70;;;12.80;99.90;;;;;;5014799;28;20206;-76
2023/05/08 04:56:37;;;;;;;80.85;53.63;;;12.90;99.90;;;;;;5014260;28;20503;-77
2023/05/08 04:59:05;;;;;;;77.43;52.07;;;12.90;99.90;;;;;;5012566;28;20255;-76
2023/05/08 05:01:32;;;;;;;73.57;51.40;;;13.00;99.90;;;;;;5014048;28;20203;-76
2023/05/08 05:04:00;;;;;;;74.53;49.37;;;13.00;99.90;;;;;;5013663;28;20205;-76
2023/05/08 05:06:27;;;;;;;79.72;53.70;;;13.10;99.90;;;;;;5012336;28;20285;-76
2023/05/08 05:08:54;;;;;;;71.67;49.30;;;13.10;99.90;;;;;;5013851;28;20599;-76
2023/05/08 05:11:21;;;;;;;69.40;49.47;;;13.10;99.90;;;;;;5013844;28;20332;-76
2023/05/08 05:13:48;;;;;;;74.28;52.63;;;13.20;99.90;;;;;;5013708;28;20286;-76
2023/05/08 05:16:15;;;;;;;83.00;55.20;;;13.20;99.90;;;;;;5012103;28;20506;-76
2023/05/08 05:18:42;;;;;;;84.23;56.53;;;13.20;99.90;;;;;;5013470;28;20200;-76
2023/05/08 05:21:10;;;;;;;88.17;57.27;;;13.30;99.90;;;;;;5013036;28;20234;-75
2023/05/08 05:23:38;;;;;;;95.30;61.85;;;13.30;99.90;;;;;;5014615;28;20204;-76
2023/05/08 05:26:05;;;;;;;78.23;54.63;;;13.40;99.90;;;;;;5011708;28;20522;-76
2023/05/08 05:28:31;;;;;;;71.07;49.38;;;13.40;99.90;;;;;;5013559;28;20282;-77
2023/05/08 05:30:58;;;;;;;61.60;45.95;;;13.40;99.90;;;;;;5012867;28;20306;-75
2023/05/08 05:33:25;;;;;;;60.33;45.35;;;13.40;99.90;;;;;;5013717;28;20211;-76
2023/05/08 05:35:52;;;;;;;58.57;45.37;;;13.50;99.90;;;;;;5013143;28;20195;-76
2023/05/08 05:38:20;;;;;;;53.40;40.42;;;13.50;99.90;;;;;;5013097;28;20209;-75
2023/05/08 05:40:47;;;;;;;54.63;41.72;;;13.50;99.90;;;;;;5013007;28;20196;-75
2023/05/08 05:43:14;;;;;;;50.92;42.22;;;13.50;99.90;;;;;;5010293;28;20290;-75
2023/05/08 05:45:41;;;;;;;50.22;40.55;;;13.60;99.90;;;;;;4993979;28;20622;-76
2023/05/08 05:48:08;;;;;;;55.83;43.90;;;13.60;99.90;;;;;;4993428;28;20207;-78
2023/05/08 05:50:36;;;;;;;54.75;42.20;;;13.70;99.90;;;;;;4996978;28;20235;-76
2023/05/08 05:53:03;;;;;;;52.78;42.35;;;13.70;99.90;;;;;;5012585;28;20242;-76
2023/05/08 05:55:31;;;;;;;46.15;38.67;;;13.70;99.90;;;;;;5012201;28;20203;-76
2023/05/08 05:57:58;;;;;;;65.68;50.10;;;13.70;99.90;;;;;;5012833;28;20227;-75
2023/05/08 06:00:25;;;;;;;60.67;46.58;;;13.70;99.90;;;;;;4996222;28;20523;-77
2023/05/08 06:02:52;;;;;;;76.93;52.75;;;13.70;99.90;;;;;;4992611;28;20200;-76
2023/05/08 06:05:19;;;;;;;87.03;60.20;;;13.80;99.90;;;;;;4993707;28;20302;-75
2023/05/08 06:07:46;;;;;;;89.32;60.10;;;13.80;99.90;;;;;;4994560;28;20215;-75
2023/05/08 06:10:13;;;;;;;87.88;57.55;;;13.90;99.90;;;;;;5012560;28;20570;-83
2023/05/08 06:12:41;;;;;;;85.60;55.90;;;13.90;99.90;;;;;;4993950;28;20228;-75
2023/05/08 06:15:09;;;;;;;97.80;62.42;;;14.00;99.90;;;;;;4993247;28;20199;-76
2023/05/08 06:17:36;;;;;;;100.03;66.35;;;14.10;99.90;;;;;;4992384;28;20208;-76
2023/05/08 06:20:04;;;;;;;101.25;68.15;;;14.10;99.90;;;;;;4993260;28;20307;-76
2023/05/08 06:22:31;;;;;;;92.15;62.33;;;14.10;99.90;;;;;;4993151;28;20200;-76
2023/05/08 06:24:57;;;;;;;106.40;68.20;;;14.10;99.90;;;;;;4992635;28;20744;-76
2023/05/08 06:27:24;;;;;;;114.68;70.53;;;14.20;99.90;;;;;;4993024;28;20204;-75
2023/05/08 06:29:53;;;;;;;111.47;69.82;;;14.20;99.90;;;;;;4993357;28;20236;-77
2023/05/08 06:32:20;;;;;;;106.72;67.63;;;14.20;99.90;;;;;;4993188;28;20196;-76
2023/05/08 06:34:47;;;;;;;113.95;67.40;;;14.20;99.90;;;;;;4992992;28;20211;-75
2023/05/08 06:37:14;;;;;;;122.75;73.97;;;14.30;99.90;;;;;;5000424;28;20213;-75
2023/05/08 06:39:41;;;;;;;117.60;71.97;;;14.30;99.90;;;;;;5012340;28;20199;-76
2023/05/08 06:42:08;;;;;;;120.70;74.20;;;14.40;99.90;;;;;;5012270;28;20214;-77
2023/05/08 06:44:35;;;;;;;111.38;70.75;;;14.50;99.90;;;;;;5011866;28;20191;-76
2023/05/08 06:47:03;;;;;;;103.95;69.05;;;14.60;99.90;;;;;;5011202;28;20792;-75
2023/05/08 06:49:30;;;;;;;118.82;74.72;;;14.70;99.90;;;;;;5012359;28;20526;-74
2023/05/08 06:51:57;;;;;;;109.18;69.07;;;14.90;99.90;;;;;;5011760;28;20253;-78
2023/05/08 06:54:24;;;;;;;116.15;74.60;;;15.10;99.90;;;;;;5009685;28;20203;-76
2023/05/08 06:56:52;;;;;;;110.85;71.20;;;15.20;99.90;;;;;;4976691;28;20222;-77
2023/05/08 06:59:20;;;;;;;111.10;74.45;;;15.30;99.90;;;;;;4992885;28;20232;-76
2023/05/08 07:01:47;;;;;;;101.45;68.00;;;15.40;99.90;;;;;;4994680;28;20204;-76
2023/05/08 07:04:15;;;;;;;99.10;68.75;;;15.50;99.90;;;;;;5005596;28;20286;-76
2023/05/08 07:06:42;;;;;;;109.03;73.13;;;15.60;99.90;;;;;;5004066;28;20355;-76
2023/05/08 07:09:09;;;;;;;117.97;74.38;;;15.70;99.90;;;;;;5003139;28;20294;-76
2023/05/08 07:11:36;;;;;;;105.82;71.22;;;15.80;99.90;;;;;;5001841;28;20241;-77
2023/05/08 07:14:03;;;;;;;110.07;73.47;;;15.90;99.90;;;;;;5006506;28;20517;-78
2023/05/08 07:16:30;;;;;;;110.55;70.10;;;15.90;99.90;;;;;;5034460;28;20244;-77
2023/05/08 07:18:57;;;;;;;99.22;66.40;;;16.00;99.90;;;;;;5027077;28;20285;-75
2023/05/08 07:21:26;;;;;;;110.03;68.20;;;16.10;99.90;;;;;;5015546;28;20191;-76
2023/05/08 07:23:53;;;;;;;99.22;63.90;;;16.20;99.90;;;;;;5015951;28;20206;-76
2023/05/08 07:26:21;;;;;;;88.97;60.80;;;16.20;99.90;;;;;;5013930;28;20619;-76
2023/05/08 07:28:49;;;;;;;91.35;62.35;;;16.20;99.90;;;;;;5015662;28;20211;-76
2023/05/08 07:31:16;;;;;;;83.72;56.85;;;16.30;99.90;;;;;;5015528;28;20223;-75
2023/05/08 07:33:43;;;;;;;89.47;56.78;;;16.30;99.90;;;;;;5015557;28;20203;-75
2023/05/08 07:36:10;;;;;;;91.22;55.03;;;16.40;99.90;;;;;;5014426;28;20218;-77
2023/05/08 07:38:38;;;;;;;83.05;53.42;;;16.40;99.90;;;;;;5016056;28;20570;-77
2023/05/08 07:41:05;;;;;;;69.25;45.60;;;16.50;99.90;;;;;;5014419;28;20286;-76
2023/05/08 07:43:32;;;;;;;69.05;44.55;;;16.50;99.90;;;;;;4996106;28;20219;-76
2023/05/08 07:45:59;;;;;;;66.88;45.80;;;16.60;99.90;;;;;;4996423;28;20204;-76
2023/05/08 07:48:26;;;;;;;68.93;45.30;;;16.70;99.90;;;;;;4995247;28;20210;-77
2023/05/08 07:50:53;;;;;;;61.10;42.22;;;16.80;99.90;;;;;;5006241;28;20223;-76
2023/05/08 07:53:20;;;;;;;69.85;46.05;;;16.90;99.90;;;;;;5015406;28;20214;-75
2023/05/08 07:55:48;;;;;;;75.60;45.38;;;17.00;99.90;;;;;;5015072;28;20342;-77
2023/05/08 07:58:15;;;;;;;72.55;43.22;;;17.10;99.90;;;;;;5014692;28;20241;-76
2023/05/08 08:00:43;;;;;;;80.70;45.50;;;17.20;99.90;;;;;;5014718;28;20234;-75
2023/05/08 08:03:10;;;;;;;73.18;41.00;;;17.30;99.90;;;;;;5014652;28;20204;-76
2023/05/08 08:05:37;;;;;;;82.63;45.28;;;17.30;99.90;;;;;;5015194;28;20207;-75
2023/05/08 08:08:05;;;;;;;63.97;39.97;;;17.40;99.90;;;;;;5015303;28;20266;-75
2023/05/08 08:10:32;;;;;;;71.85;42.13;;;17.50;99.90;;;;;;5013573;28;20278;-76
2023/05/08 08:13:01;;;;;;;68.63;43.35;;;17.60;99.90;;;;;;5014412;28;20693;-75
2023/05/08 08:15:28;;;;;;;71.95;43.20;;;17.60;99.90;;;;;;5014882;28;20207;-75
2023/05/08 08:17:55;;;;;;;67.28;42.58;;;17.70;99.90;;;;;;5006824;28;20203;-75
2023/05/08 08:20:22;;;;;;;64.72;40.25;;;17.70;99.90;;;;;;5011022;28;20187;-76
2023/05/08 08:22:49;;;;;;;63.25;40.40;;;17.60;99.90;;;;;;5012219;28;20242;-74
2023/05/08 08:25:16;;;;;;;65.22;40.67;;;17.60;99.90;;;;;;4999565;28;20199;-75
2023/05/08 08:27:43;;;;;;;80.40;45.55;;;17.70;99.90;;;;;;5013127;28;20200;-76
2023/05/08 08:30:12;;;;;;;76.45;45.17;;;17.60;99.90;;;;;;5000943;28;20233;-76
2023/05/08 08:32:38;;;;;;;74.82;45.47;;;17.60;99.90;;;;;;5012032;28;20620;-75
2023/05/08 08:35:06;;;;;;;79.70;45.40;;;17.50;99.90;;;;;;5003414;28;20192;-76
2023/05/08 08:37:33;;;;;;;76.75;45.10;;;17.50;99.90;;;;;;4997076;28;20211;-76
2023/05/08 08:40:00;;;;;;;78.22;45.15;;;17.50;99.90;;;;;;5005427;28;20556;-76
2023/05/08 08:42:27;;;;;;;75.15;44.45;;;17.50;99.90;;;;;;5009398;28;20656;-76
2023/05/08 08:44:55;;;;;;;75.18;43.92;;;17.50;99.90;;;;;;5007058;28;20296;-76
2023/05/08 08:47:29;;;;;;;67.55;41.38;;;17.50;99.90;;;;;;5011399;28;20275;-76
2023/05/08 08:49:58;;;;;;;86.97;48.78;;;17.60;99.90;;;;;;5007027;28;20206;-75
2023/05/08 08:52:31;;;;;;;70.55;42.72;;;17.60;99.90;;;;;;5007120;28;20210;-76
2023/05/08 08:55:02;;;;;;;78.22;44.13;;;17.70;99.90;;;;;;5009819;28;20198;-76
2023/05/08 08:57:32;;;;;;;71.65;40.17;;;17.80;99.90;;;;;;5011383;28;20227;-76
2023/05/08 09:00:03;;;;;;;71.13;39.33;;;17.90;99.90;;;;;;5013929;28;20219;-76
2023/05/08 09:02:31;;;;;;;70.90;38.83;;;18.10;99.90;;;;;;5005481;28;20231;-76
2023/05/08 09:04:58;;;;;;;64.43;35.97;;;18.20;99.90;;;;;;4993088;28;20513;-76
2023/05/08 09:07:26;;;;;;;69.25;38.22;;;18.20;99.90;;;;;;5004936;28;20202;-75
2023/05/08 09:09:54;;;;;;;67.75;38.42;;;18.30;99.90;;;;;;5011810;28;20203;-76
2023/05/08 09:12:20;;;;;;;75.28;37.58;;;18.40;99.90;;;;;;5012076;28;20244;-76
2023/05/08 09:14:47;;;;;;;59.67;34.70;;;18.50;99.90;;;;;;5011987;28;20202;-76
2023/05/08 09:17:14;;;;;;;70.03;37.85;;;18.60;99.90;;;;;;5005005;28;20207;-76
2023/05/08 09:19:43;;;;;;;63.42;35.78;;;18.70;99.90;;;;;;5005678;28;20203;-77
2023/05/08 09:22:11;;;;;;;56.03;33.22;;;18.80;99.90;;;;;;5011602;28;20203;-76
2023/05/08 09:24:58;;;;;;;61.58;33.90;;;18.90;99.90;;;;;;5014877;28;20552;-76
2023/05/08 09:27:27;;;;;;;68.55;35.83;;;19.00;99.90;;;;;;5006684;28;20210;-76
2023/05/08 09:30:04;;;;;;;52.72;30.65;;;19.10;99.90;;;;;;5012718;28;20207;-77
2023/05/08 09:32:32;;;;;;;55.05;30.65;;;19.20;99.90;;;;;;5014581;28;20230;-77
2023/05/08 09:35:01;;;;;;;45.38;27.13;;;19.30;99.90;;;;;;5012954;28;20218;-76
2023/05/08 09:37:29;;;;;;;52.72;29.33;;;19.50;99.90;;;;;;5013364;28;20208;-76
2023/05/08 09:40:13;;;;;;;49.13;28.58;;;19.60;99.90;;;;;;5013267;28;20198;-77
2023/05/08 09:42:40;;;;;;;50.10;27.58;;;19.70;99.90;;;;;;5014371;28;20601;-76
2023/05/08 09:45:08;;;;;;;41.83;25.77;;;19.80;99.90;;;;;;5011797;28;20195;-77
2023/05/08 09:47:38;;;;;;;49.38;29.10;;;19.90;99.90;;;;;;5009314;28;20213;-76
2023/05/08 09:50:08;;;;;;;48.97;28.92;;;20.00;99.90;;;;;;5011401;28;20302;-76
2023/05/08 09:52:36;;;;;;;47.35;27.58;;;20.00;99.90;;;;;;5012488;28;20438;-76
2023/05/08 09:55:05;;;;;;;42.72;24.60;;;20.10;99.90;;;;;;5011154;28;20559;-77
2023/05/08 09:57:35;;;;;;;38.17;23.10;;;20.10;99.90;;;;;;5012673;28;20202;-76
2023/05/08 10:00:05;;;;;;;37.22;22.90;;;20.20;99.90;;;;;;5013607;28;20629;-77
2023/05/08 10:02:32;;;;;;;30.70;19.75;;;20.20;99.90;;;;;;5012410;28;20203;-76
2023/05/08 10:04:59;;;;;;;27.02;18.10;;;20.20;99.90;;;;;;5013307;28;20203;-77
2023/05/08 10:07:31;;;;;;;25.80;17.60;;;20.20;99.90;;;;;;5013060;28;20208;-76
2023/05/08 10:09:59;;;;;;;26.80;16.63;;;20.20;99.90;;;;;;5012361;28;20203;-76
2023/05/08 10:12:27;;;;;;;26.08;16.38;;;20.40;99.90;;;;;;5013355;28;20238;-78
2023/05/08 10:14:55;;;;;;;26.33;16.95;;;20.50;99.90;;;;;;4999260;28;20631;-77
2023/05/08 10:17:26;;;;;;;26.55;17.63;;;20.70;99.90;;;;;;4993878;28;20203;-78
2023/05/08 10:19:59;;;;;;;23.55;16.05;;;20.90;99.90;;;;;;5014025;28;20210;-78
2023/05/08 10:22:27;;;;;;;27.65;16.63;;;21.00;99.90;;;;;;5011472;28;20623;-76
2023/05/08 10:24:57;;;;;;;23.25;15.57;;;20.90;99.90;;;;;;4993785;28;20620;-78
2023/05/08 10:27:35;;;;;;;21.60;15.32;;;20.90;99.90;;;;;;4994161;28;20192;-77
2023/05/08 10:30:04;;;;;;;23.08;15.63;;;21.10;99.90;;;;;;5002851;28;20210;-77
2023/05/08 10:32:40;;;;;;;25.25;17.25;;;21.20;99.90;;;;;;5013573;28;20490;-77
2023/05/08 10:35:10;;;;;;;25.88;17.50;;;21.30;99.90;;;;;;5013246;28;20514;-77
2023/05/08 10:37:38;;;;;;;23.88;16.02;;;21.40;99.90;;;;;;5012947;28;20215;-78
2023/05/08 10:40:09;;;;;;;22.33;16.02;;;21.50;99.90;;;;;;5012505;28;20215;-77
2023/05/08 10:42:36;;;;;;;20.50;14.50;;;21.70;99.90;;;;;;5013463;28;20195;-78
2023/05/08 10:45:06;;;;;;;23.90;15.65;;;21.80;99.90;;;;;;5013032;28;20202;-77
2023/05/08 10:47:44;;;;;;;25.73;17.45;;;21.70;99.90;;;;;;5013550;28;20705;-77
2023/05/08 10:50:22;;;;;;;23.00;16.42;;;21.70;99.90;;;;;;5011546;28;20298;-78
2023/05/08 10:52:57;;;;;;;24.20;17.45;;;21.80;99.90;;;;;;5012566;28;20298;-78
2023/05/08 10:55:30;;;;;;;28.27;18.40;;;21.80;99.90;;;;;;5013378;28;20191;-77
2023/05/08 10:58:11;;;;;;;28.52;19.58;;;21.90;99.90;;;;;;5007561;28;20231;-77
2023/05/08 11:01:16;;;;;;;23.10;17.10;;;21.90;99.90;;;;;;4993814;28;20196;-76
2023/05/08 11:03:44;;;;;;;30.20;19.88;;;22.00;99.90;;;;;;5013130;28;20301;-78
2023/05/08 11:06:12;;;;;;;28.58;19.40;;;22.00;99.90;;;;;;5012803;28;20203;-77
2023/05/08 11:08:50;;;;;;;26.50;18.65;;;22.00;99.90;;;;;;5012093;28;20754;-77
2023/05/08 11:11:26;;;;;;;29.15;19.25;;;21.90;99.90;;;;;;5013080;28;20236;-78
2023/05/08 11:13:58;;;;;;;26.52;18.85;;;21.70;99.90;;;;;;5012515;28;20822;-77
2023/05/08 11:17:02;;;;;;;27.70;18.38;;;21.70;99.90;;;;;;5011234;28;20238;-77
2023/05/08 11:19:30;;;;;;;26.55;18.30;;;21.80;99.90;;;;;;5011481;28;20285;-77
2023/05/08 11:22:25;;;;;;;25.35;17.25;;;21.80;99.90;;;;;;5012242;28;20203;-77
2023/05/08 11:24:58;;;;;;;20.63;16.65;;;21.80;99.90;;;;;;4958077;28;20200;-78
2023/05/08 11:27:38;;;;;;;22.77;16.30;;;21.80;99.90;;;;;;4991838;28;20306;-78
2023/05/08 11:30:27;;;;;;;24.80;17.90;;;21.90;99.90;;;;;;4993166;28;20287;-77
2023/05/08 11:33:24;;;;;;;26.02;19.42;;;21.80;99.90;;;;;;4993143;28;20270;-77
2023/05/08 11:35:54;;;;;;;26.58;19.88;;;21.80;99.90;;;;;;4993710;28;20203;-76
2023/05/08 11:38:27;;;;;;;26.45;19.25;;;21.80;99.90;;;;;;4993403;28;20199;-77
2023/05/08 11:40:59;;;;;;;28.95;19.80;;;21.70;99.90;;;;;;5003278;28;20200;-79
2023/05/08 11:44:12;;;;;;;28.77;19.90;;;21.60;99.90;;;;;;5012102;28;20210;-78
2023/05/08 11:46:43;;;;;;;27.63;19.50;;;21.40;99.90;;;;;;5011997;28;20294;-79
2023/05/08 11:49:15;;;;;;;27.38;18.58;;;21.30;99.90;;;;;;5012517;28;20307;-78
2023/05/08 11:51:44;;;;;;;26.48;20.05;;;21.20;99.90;;;;;;5011769;28;20484;-77
2023/05/08 11:54:14;;;;;;;25.60;19.30;;;21.00;99.90;;;;;;5012120;28;20290;-78
2023/05/08 11:56:41;;;;;;;27.15;19.80;;;21.00;99.90;;;;;;5011698;28;20207;-78
2023/05/08 11:59:09;;;;;;;23.25;18.40;;;20.90;99.90;;;;;;5012491;28;20223;-78
2023/05/08 12:01:36;;;;;;;25.40;19.52;;;20.90;99.90;;;;;;5012489;28;20519;-78
2023/05/08 12:04:06;;;;;;;23.65;18.60;;;20.80;99.90;;;;;;5016205;28;20626;-78
2023/05/08 12:06:34;;;;;;;27.63;19.52;;;20.80;99.90;;;;;;5016372;28;20286;-79
2023/05/08 12:09:03;;;;;;;23.02;18.10;;;20.80;99.90;;;;;;5015826;28;20289;-79
2023/05/08 12:11:30;;;;;;;24.80;18.27;;;20.90;99.90;;;;;;5015282;28;20665;-78
2023/05/08 12:13:57;;;;;;;31.55;21.98;;;20.90;99.90;;;;;;5015128;28;20286;-77
2023/05/08 12:16:24;;;;;;;25.33;20.42;;;20.90;99.90;;;;;;5015479;28;20608;-78
2023/05/08 12:18:52;;;;;;;24.83;18.77;;;20.90;99.90;;;;;;5016192;28;20203;-77
2023/05/08 12:21:21;;;;;;;25.25;19.88;;;20.80;99.90;;;;;;5015153;28;20200;-77
2023/05/08 12:23:48;;;;;;;23.52;18.63;;;20.80;99.90;;;;;;5015408;28;20785;-78
2023/05/08 12:26:15;;;;;;;25.80;19.83;;;20.70;99.90;;;;;;5015896;28;20202;-79
2023/05/08 12:28:46;;;;;;;26.90;21.17;;;20.80;99.90;;;;;;5015382;28;20226;-77
2023/05/08 12:31:13;;;;;;;25.67;20.58;;;20.80;99.90;;;;;;5015261;28;20522;-78
2023/05/08 12:33:41;;;;;;;26.88;20.15;;;20.90;99.90;;;;;;5016105;28;20552;-78
2023/05/08 12:36:08;;;;;;;29.88;21.17;;;21.00;99.90;;;;;;5015359;28;20611;-78
2023/05/08 12:38:36;;;;;;;28.98;19.42;;;20.90;99.90;;;;;;5014629;28;20199;-78